Terminal Aerodrome Forecast
Issued by NWS

Home | Current Version | Previous Version | Text Only | Print | Product List | Glossary On
Versions: 1 2 3 4 5 6 7 8 9 10 11 12 13 14 15 16 17 18 19 20 21 22 23 24 25
518
FTUS44 KLZK 251404 AAA
TAFHRO
TAF AMD
KHRO 251404Z 2514/2612 VRB05KT P6SM VCTS SCT025CB BKN100
      TEMPO 2514/2518 3SM -TSRA BR OVC025CB
     FM251800 16010KT P6SM SCT025 BKN040
     FM260600 VRB06KT 4SM BR BKN010 OVC025
     FM261000 VRB06KT 4SM BR BKN005 OVC010=

USA.gov is the U.S. government's official web portal to all federal, state and local government web resources and services.